Aérodrome :
LOGIN :

S'inscrire | Disclaimer

   EN    FR    IT 

 










Légende :    VFR   VFR Marginal   IFR   IFR Intensif   IFR Très Intensif
Visi : 
Plafond : 
>= 8 km
>= 3000ft
5 à 8 km
1000 à 3000 ft
1500m à 5 km
500 à 1000 ft
800 à 1500m
200 à 500 ft
< 800m
< 200 ft
Symboles :   Orages  Brouillard  Fortes neiges  Fortes précipitations  Vent > 20 kt
SIGMETs :   Divers  Orages  Givrage  Turbulence  Onde Orograph.  Cendres Volcan.






- Altitude de l'aérodrome : 505 ft
- Code IATA : SXB


LFST - Strasbourg

DERNIER METAR :
  • 161300Z AUTO 23009KT CAVOK 25/12 Q1015 TEMPO SHRA FEW040CB

METARs EXPIRÉS :
  • 161230Z AUTO 25013KT CAVOK 24/12 Q1016 TEMPO SHRA FEW040CB
  • 161200Z AUTO 22012G22KT 180V250 9999 BKN056 BKN078 24/13 Q1016 TEMPO 26015KT SHRA FEW040CB
  • 161130Z AUTO 21012KT 170V240 9999 FEW060 SCT072 BKN084 25/14 Q1015 TEMPO SHRA FEW040CB
  • 161100Z AUTO 21009KT 180V250 9999 BKN056 BKN068 25/15 Q1015 TEMPO SHRA FEW040CB
  • 161030Z AUTO 25010G22KT 180V300 9999 BKN056 BKN068 BKN082 24/14 Q1015 TEMPO SHRA FEW040CB
  • 161000Z AUTO 23016KT 9999 BKN058 BKN070 24/13 Q1015 TEMPO SCT040TCU
  • 160930Z AUTO 22014KT 190V250 9999 FEW042 BKN056 24/14 Q1015 TEMPO SCT040TCU
  • 160900Z AUTO 21005KT 170V260 9999 FEW012/// SCT049/// ///CB 23/15 Q1016 BECMG FEW020 BKN040
  • 160830Z AUTO 22005KT 190V250 9999 FEW034 SCT047 BKN054 22/14 Q1016 NOSIG
  • 160800Z AUTO 23008KT 200V270 9999 FEW037 SCT064 BKN090 22/15 Q1016 NOSIG

TAF TAF LFST
Valide du 16 à 12h jusqu'au 17 à 12h UTC


161100Z 1612/1712 20005KT 9999 FEW040 BKN055
TEMPO 1612/1620 26015KT
PROB40
TEMPO 1612/1620 -SHRA SCT040TCU
PROB30
TEMPO 1612/1619 SHRA FEW040CB



MET'MAP, la Météo Aéronautique d'un coup d'oeil ! - Copyright ORBIFLY Décembre 2007 - Disclaimer

ORBIFLY MET'MAP TEAM :

Programmation & Développement : Alexandra Zaïnal
Sur une idée originale de : Baudouin d'Aumeries
Soutien technique & logistique : Manuel Goepfert
Assistance : Marc-Olivier Méhu




SOURCES & CREDITS :

   NOAA